Kelly — WCX5127 — position and weather

sailwx.info

Track history (hours):
 
Tides and Currents Weather Stations Pressure Air Temp Water Temp Dewpoint Dewpoint Depression Visibility Wind Speed Wind Dir Waves Ship Positions

Kelly

Owner: INTERNATIONAL CARGO AND SHIP CHARTERING, San Antonio, FL. More information available from US FCC via Universal Licensing System and Coast Guard Vessel Documentation Center.

Last reported at 2018-May-22 19:10 UTC. Time now 2018-May-25 18:51 UTC.
Position N 29°16' W 094°36'.

Length 158 m; draft 9.4 m.

MMSI: 303606000.

Date/timePositionNaut miles runAvg speedWind from/ knotsBaromVisibWave heightAir tempDewpointWater temp
2018-May-22 19:10N 29°16' W 094°36'2 8.5
2018-May-22 18:58N 29°17' W 094°37'4 8.0
2018-May-22 18:30N 29°20' W 094°40'3 6.3
2018-May-22 18:00N 29°21' W 094°44'3 5.8
2018-May-22 17:31N 29°19' W 094°47'2 4.5
2018-May-22 17:00N 29°19' W 094°49'0 0.0
2018-May-22 16:30N 29°19' W 094°49'0 0.0
2018-May-22 15:59N 29°19' W 094°49'0 0.0
2018-May-22 15:29N 29°19' W 094°49'0 0.0
2018-May-22 14:56N 29°19' W 094°49'0 0.0
2018-May-22 14:26N 29°19' W 094°49'0 0.0
2018-May-22 13:59N 29°19' W 094°49'0 0.0
2018-May-22 13:29N 29°19' W 094°49'0 0.0
2018-May-22 12:59N 29°19' W 094°49'0 0.0
2018-May-22 12:26N 29°19' W 094°49'0 0.0
2018-May-22 11:59N 29°19' W 094°49'0 0.0
2018-May-22 11:26N 29°19' W 094°49'0 0.0
2018-May-22 10:53N 29°19' W 094°49'0 0.0
2018-May-22 10:29N 29°19' W 094°49'0 0.0
2018-May-22 09:59N 29°19' W 094°49'0 0.0
2018-May-22 09:29N 29°19' W 094°49'0 0.0
2018-May-22 08:59N 29°19' W 094°49'0 0.0
2018-May-22 08:29N 29°19' W 094°49'0 0.0
2018-May-22 07:59N 29°19' W 094°49'0 0.0
2018-May-22 07:29N 29°19' W 094°49'0 0.0
2018-May-22 06:59N 29°19' W 094°49'0 0.0
2018-May-22 06:29N 29°19' W 094°49'0 0.0
2018-May-22 05:59N 29°19' W 094°49'0 0.0
2018-May-22 05:26N 29°19' W 094°49'0 0.0
2018-May-22 04:59N 29°19' W 094°49'0 0.0
2018-May-22 04:29N 29°19' W 094°49'0 0.0
2018-May-22 03:56N 29°19' W 094°49'0 0.0
2018-May-21 22:26N 29°19' W 094°49'0 0.0
2018-May-21 21:59N 29°19' W 094°49'0 0.0
2018-May-21 21:26N 29°19' W 094°49'0 0.0
2018-May-21 20:59N 29°19' W 094°49'0 0.0
2018-May-21 20:30N 29°19' W 094°49'3 4.8
2018-May-21 19:58N 29°20' W 094°47'  
2018-May-14 17:24N 28°06' W 091°43'8 9.3
2018-May-14 16:31N 28°06' W 091°52'0 9.4
2018-May-14 16:30N 28°06' W 091°52'4 7.4
2018-May-14 16:00N 28°06' W 091°56'13 8.9
2018-May-14 14:34N 28°07' W 092°11'1 9.0
2018-May-14 14:28N 28°07' W 092°12'4 8.8
2018-May-14 13:58N 28°08' W 092°17'7 8.9
2018-May-14 13:11N 28°10' W 092°24'3 8.9
2018-May-14 12:50N 28°11' W 092°28'3 9.0
2018-May-14 12:29N 28°12' W 092°31'43 8.4
2018-May-14 07:23N 28°27' W 093°16'85 8.0
2018-May-13 20:45N 29°16' W 094°35'2 8.2
2018-May-13 20:29N 29°18' W 094°37'4 8.5
2018-May-13 19:59N 29°20' W 094°41'4 8.3
2018-May-13 19:28N 29°20' W 094°46'3 6.0
2018-May-13 18:54N 29°19' W 094°49'0 0.1
2018-May-13 18:30N 29°19' W 094°49'0 0.0
2018-May-13 18:00N 29°19' W 094°49'0 0.0
2018-May-13 17:30N 29°19' W 094°49'0 0.0
2018-May-13 17:00N 29°19' W 094°49'0 0.0
2018-May-13 16:30N 29°19' W 094°49'0 0.0
2018-May-13 16:00N 29°19' W 094°49'0 0.0
2018-May-13 15:30N 29°19' W 094°49'0 0.0
2018-May-13 15:00N 29°19' W 094°49'0 0.0
2018-May-13 14:30N 29°19' W 094°49'0 0.0
2018-May-13 14:00N 29°19' W 094°49'0 0.0
2018-May-13 13:30N 29°19' W 094°49'0 0.0
2018-May-13 13:00N 29°19' W 094°49'0 0.0
2018-May-13 12:27N 29°19' W 094°49'0 0.0
2018-May-13 12:00N 29°19' W 094°49'0 0.0
2018-May-13 11:30N 29°19' W 094°49'0 0.0
2018-May-13 10:54N 29°19' W 094°49'0 0.0
2018-May-13 10:30N 29°19' W 094°49'0 0.0
2018-May-13 10:00N 29°19' W 094°49'0 0.0
2018-May-13 09:30N 29°19' W 094°49'0 0.0
2018-May-13 09:00N 29°19' W 094°49'0 0.0
2018-May-13 08:30N 29°19' W 094°49'0 0.0
2018-May-13 07:51N 29°19' W 094°49'0 0.0
2018-May-13 07:21N 29°19' W 094°49'0 0.0
2018-May-13 06:54N 29°19' W 094°49'0 0.0
2018-May-13 06:30N 29°19' W 094°49'0 0.0
2018-May-13 05:48N 29°19' W 094°49'0 0.0
2018-May-13 05:18N 29°19' W 094°49'0 0.0
2018-May-13 04:57N 29°19' W 094°49'0 0.0
2018-May-13 04:27N 29°19' W 094°49'0 0.0
2018-May-13 03:54N 29°19' W 094°49'0 0.0
2018-May-13 03:30N 29°19' W 094°49'0 0.0
2018-May-13 03:00N 29°19' W 094°49'0 0.0
2018-May-13 02:27N 29°19' W 094°49'0 0.0
2018-May-13 01:57N 29°19' W 094°49'0 0.0
2018-May-13 01:30N 29°19' W 094°49'0 0.0
2018-May-13 00:50N 29°19' W 094°49'0 0.0
2018-May-13 00:29N 29°19' W 094°49'0 0.0
2018-May-12 23:59N 29°19' W 094°49'8 5.3
2018-May-12 22:31N 29°20' W 094°40'310.0
2018-May-12 22:10N 29°18' W 094°37'  
Track history (hours):
 
Tides and Currents Weather Stations Pressure Air Temp Water Temp Dewpoint Dewpoint Depression Visibility Wind Speed Wind Dir Waves Ship Positions

Kelly

Owner: INTERNATIONAL CARGO AND SHIP CHARTERING, San Antonio, FL. More information available from US FCC via Universal Licensing System and Coast Guard Vessel Documentation Center.

Last reported at 2018-May-22 19:10 UTC. Time now 2018-May-25 18:51 UTC.
Position N 29°16' W 094°36'.

Length 158 m; draft 9.4 m.

MMSI: 303606000.

Date/timePositionNaut miles runAvg speedWind from/ knotsBaromVisibWave heightAir tempDewpointWater temp
2018-May-22 19:10N 29°16' W 094°36'2 8.5
2018-May-22 18:58N 29°17' W 094°37'4 8.0
2018-May-22 18:30N 29°20' W 094°40'3 6.3
2018-May-22 18:00N 29°21' W 094°44'3 5.8
2018-May-22 17:31N 29°19' W 094°47'2 4.5
2018-May-22 17:00N 29°19' W 094°49'0 0.0
2018-May-22 16:30N 29°19' W 094°49'0 0.0
2018-May-22 15:59N 29°19' W 094°49'0 0.0
2018-May-22 15:29N 29°19' W 094°49'0 0.0
2018-May-22 14:56N 29°19' W 094°49'0 0.0
2018-May-22 14:26N 29°19' W 094°49'0 0.0
2018-May-22 13:59N 29°19' W 094°49'0 0.0
2018-May-22 13:29N 29°19' W 094°49'0 0.0
2018-May-22 12:59N 29°19' W 094°49'0 0.0
2018-May-22 12:26N 29°19' W 094°49'0 0.0
2018-May-22 11:59N 29°19' W 094°49'0 0.0
2018-May-22 11:26N 29°19' W 094°49'0 0.0
2018-May-22 10:53N 29°19' W 094°49'0 0.0
2018-May-22 10:29N 29°19' W 094°49'0 0.0
2018-May-22 09:59N 29°19' W 094°49'0 0.0
2018-May-22 09:29N 29°19' W 094°49'0 0.0
2018-May-22 08:59N 29°19' W 094°49'0 0.0
2018-May-22 08:29N 29°19' W 094°49'0 0.0
2018-May-22 07:59N 29°19' W 094°49'0 0.0
2018-May-22 07:29N 29°19' W 094°49'0 0.0
2018-May-22 06:59N 29°19' W 094°49'0 0.0
2018-May-22 06:29N 29°19' W 094°49'0 0.0
2018-May-22 05:59N 29°19' W 094°49'0 0.0
2018-May-22 05:26N 29°19' W 094°49'0 0.0
2018-May-22 04:59N 29°19' W 094°49'0 0.0
2018-May-22 04:29N 29°19' W 094°49'0 0.0
2018-May-22 03:56N 29°19' W 094°49'0 0.0
2018-May-21 22:26N 29°19' W 094°49'0 0.0
2018-May-21 21:59N 29°19' W 094°49'0 0.0
2018-May-21 21:26N 29°19' W 094°49'0 0.0
2018-May-21 20:59N 29°19' W 094°49'0 0.0
2018-May-21 20:30N 29°19' W 094°49'3 4.8
2018-May-21 19:58N 29°20' W 094°47'  
2018-May-14 17:24N 28°06' W 091°43'8 9.3
2018-May-14 16:31N 28°06' W 091°52'0 9.4
2018-May-14 16:30N 28°06' W 091°52'4 7.4
2018-May-14 16:00N 28°06' W 091°56'13 8.9
2018-May-14 14:34N 28°07' W 092°11'1 9.0
2018-May-14 14:28N 28°07' W 092°12'4 8.8
2018-May-14 13:58N 28°08' W 092°17'7 8.9
2018-May-14 13:11N 28°10' W 092°24'3 8.9
2018-May-14 12:50N 28°11' W 092°28'3 9.0
2018-May-14 12:29N 28°12' W 092°31'43 8.4
2018-May-14 07:23N 28°27' W 093°16'85 8.0
2018-May-13 20:45N 29°16' W 094°35'2 8.2
2018-May-13 20:29N 29°18' W 094°37'4 8.5
2018-May-13 19:59N 29°20' W 094°41'4 8.3
2018-May-13 19:28N 29°20' W 094°46'3 6.0
2018-May-13 18:54N 29°19' W 094°49'0 0.1
2018-May-13 18:30N 29°19' W 094°49'0 0.0
2018-May-13 18:00N 29°19' W 094°49'0 0.0
2018-May-13 17:30N 29°19' W 094°49'0 0.0
2018-May-13 17:00N 29°19' W 094°49'0 0.0
2018-May-13 16:30N 29°19' W 094°49'0 0.0
2018-May-13 16:00N 29°19' W 094°49'0 0.0
2018-May-13 15:30N 29°19' W 094°49'0 0.0
2018-May-13 15:00N 29°19' W 094°49'0 0.0
2018-May-13 14:30N 29°19' W 094°49'0 0.0
2018-May-13 14:00N 29°19' W 094°49'0 0.0
2018-May-13 13:30N 29°19' W 094°49'0 0.0
2018-May-13 13:00N 29°19' W 094°49'0 0.0
2018-May-13 12:27N 29°19' W 094°49'0 0.0
2018-May-13 12:00N 29°19' W 094°49'0 0.0
2018-May-13 11:30N 29°19' W 094°49'0 0.0
2018-May-13 10:54N 29°19' W 094°49'0 0.0
2018-May-13 10:30N 29°19' W 094°49'0 0.0
2018-May-13 10:00N 29°19' W 094°49'0 0.0
2018-May-13 09:30N 29°19' W 094°49'0 0.0
2018-May-13 09:00N 29°19' W 094°49'0 0.0
2018-May-13 08:30N 29°19' W 094°49'0 0.0
2018-May-13 07:51N 29°19' W 094°49'0 0.0
2018-May-13 07:21N 29°19' W 094°49'0 0.0
2018-May-13 06:54N 29°19' W 094°49'0 0.0
2018-May-13 06:30N 29°19' W 094°49'0 0.0
2018-May-13 05:48N 29°19' W 094°49'0 0.0
2018-May-13 05:18N 29°19' W 094°49'0 0.0
2018-May-13 04:57N 29°19' W 094°49'0 0.0
2018-May-13 04:27N 29°19' W 094°49'0 0.0
2018-May-13 03:54N 29°19' W 094°49'0 0.0
2018-May-13 03:30N 29°19' W 094°49'0 0.0
2018-May-13 03:00N 29°19' W 094°49'0 0.0
2018-May-13 02:27N 29°19' W 094°49'0 0.0
2018-May-13 01:57N 29°19' W 094°49'0 0.0
2018-May-13 01:30N 29°19' W 094°49'0 0.0
2018-May-13 00:50N 29°19' W 094°49'0 0.0
2018-May-13 00:29N 29°19' W 094°49'0 0.0
2018-May-12 23:59N 29°19' W 094°49'8 5.3
2018-May-12 22:31N 29°20' W 094°40'310.0
2018-May-12 22:10N 29°18' W 094°37'  

Dump ship's entire track history